createdAt,value
2018-05-27T00:02:04.378Z,95892.55
2018-05-27T00:04:34.408Z,95886.34
2018-05-27T00:07:03.470Z,95879.48
2018-05-27T00:09:32.606Z,95879.23
2018-05-27T00:12:01.645Z,95878.77
2018-05-27T00:14:36.605Z,95872.96
2018-05-27T00:17:05.708Z,95873.45
2018-05-27T00:19:34.771Z,95868.98
2018-05-27T00:22:03.821Z,95868.73
2018-05-27T00:24:37.885Z,95867.94
2018-05-27T00:27:06.965Z,95869.66
2018-05-27T00:29:40.461Z,95865.44
2018-05-27T00:32:09.560Z,95867.98
2018-05-27T00:37:14.873Z,95870.86
2018-05-27T00:39:48.177Z,95871.60
2018-05-27T00:42:17.259Z,95868.77
2018-05-27T00:45:00.659Z,95866.31
2018-05-27T00:47:29.756Z,95864.06
2018-05-27T00:49:58.854Z,95857.23
2018-05-27T00:52:27.885Z,95857.66
2018-05-27T00:54:57.993Z,95857.06
2018-05-27T00:57:55.529Z,95851.11
2018-05-27T01:00:24.629Z,95851.03
2018-05-27T01:02:53.702Z,95851.19
2018-05-27T01:05:22.777Z,95845.86
2018-05-27T01:07:57.665Z,95848.68
2018-05-27T01:10:28.634Z,95845.10
2018-05-27T01:15:33.493Z,95845.42
2018-05-27T01:18:02.566Z,95841.49
2018-05-27T01:20:32.634Z,95842.34
2018-05-27T01:23:01.708Z,95833.41
2018-05-27T01:25:30.766Z,95828.21
2018-05-27T01:27:59.822Z,95820.66
2018-05-27T01:30:28.877Z,95816.98
2018-05-27T01:35:36.193Z,95818.88
2018-05-27T01:38:05.270Z,95813.42
2018-05-27T01:43:10.046Z,95809.95
2018-05-27T01:45:39.111Z,95804.94
2018-05-27T01:48:08.189Z,95798.84
2018-05-27T01:50:56.020Z,95799.23
2018-05-27T01:53:33.109Z,95800.50
2018-05-27T01:56:02.199Z,95793.81
2018-05-27T01:58:34.852Z,95792.41
2018-05-27T02:01:03.924Z,95785.34
2018-05-27T02:03:41.498Z,95784.78
2018-05-27T02:06:10.578Z,95782.89
2018-05-27T02:08:40.582Z,95786.77
2018-05-27T02:14:08.846Z,95779.95
2018-05-27T02:16:40.854Z,95772.81
2018-05-27T02:19:13.761Z,95774.43
2018-05-27T02:21:42.815Z,95773.13
2018-05-27T02:24:12.806Z,95774.78
2018-05-27T02:26:41.905Z,95776.22
2018-05-27T02:29:34.635Z,95774.66
2018-05-27T02:32:18.846Z,95773.74
2018-05-27T02:34:47.946Z,95768.91
2018-05-27T02:37:17.918Z,95765.70
2018-05-27T02:39:47.022Z,95759.74
2018-05-27T02:44:51.859Z,95761.78
2018-05-27T02:47:22.850Z,95761.97
2018-05-27T02:49:51.950Z,95757.67
2018-05-27T02:52:24.158Z,95757.17
2018-05-27T02:54:53.277Z,95753.47
2018-05-27T02:57:22.353Z,95751.13
2018-05-27T02:59:51.425Z,95751.63
2018-05-27T03:02:20.501Z,95749.74
2018-05-27T03:04:49.579Z,95748.67
2018-05-27T03:07:19.623Z,95744.06
2018-05-27T03:09:49.030Z,95739.15
2018-05-27T03:14:55.933Z,95735.17
2018-05-27T03:17:25.913Z,95734.31
2018-05-27T03:19:55.105Z,95736.00
2018-05-27T03:22:26.078Z,95732.36
2018-05-27T03:24:55.145Z,95735.95
2018-05-27T03:29:59.911Z,95742.70
2018-05-27T03:32:41.379Z,95742.17
2018-05-27T03:35:21.590Z,95742.17
2018-05-27T03:37:50.780Z,95742.45
2018-05-27T03:40:19.849Z,95746.08
2018-05-27T03:42:48.902Z,95749.63
2018-05-27T03:45:21.723Z,95746.48
2018-05-27T03:47:50.800Z,95752.00
2018-05-27T03:50:27.578Z,95753.56
2018-05-27T03:52:56.622Z,95752.84
2018-05-27T03:58:02.325Z,95752.91
2018-05-27T04:00:31.382Z,95750.63
2018-05-27T04:03:00.437Z,95747.33
2018-05-27T04:05:51.926Z,95751.30
2018-05-27T04:08:31.999Z,95752.12
2018-05-27T04:11:01.072Z,95756.55
2018-05-27T04:16:07.825Z,95755.67
2018-05-27T04:18:36.873Z,95751.75
2018-05-27T04:23:42.134Z,95756.25
2018-05-27T04:26:11.211Z,95755.09
2018-05-27T04:28:40.309Z,95759.95
2018-05-27T04:31:12.891Z,95760.02
2018-05-27T04:38:58.399Z,95768.00
2018-05-27T04:41:41.361Z,95769.92
2018-05-27T04:44:10.433Z,95773.68
2018-05-27T04:51:53.456Z,95759.14
2018-05-27T04:54:26.154Z,95754.98
2018-05-27T04:56:55.229Z,95754.97
2018-05-27T04:59:32.821Z,95753.72
2018-05-27T05:02:01.911Z,95747.20
2018-05-27T05:07:11.200Z,95755.89
2018-05-27T05:09:42.182Z,95761.52
2018-05-27T05:12:21.231Z,95760.56
2018-05-27T05:14:50.329Z,95760.11
2018-05-27T05:17:19.333Z,95759.23
2018-05-27T05:19:48.465Z,95754.02
2018-05-27T05:24:57.137Z,95762.38
2018-05-27T05:30:01.938Z,95766.72
2018-05-27T05:32:34.788Z,95767.92
2018-05-27T05:35:05.856Z,95769.92
2018-05-27T05:37:35.813Z,95773.77
2018-05-27T05:40:04.875Z,95775.82
2018-05-27T05:42:35.953Z,95776.39
2018-05-27T05:47:40.822Z,95785.41
2018-05-27T05:50:09.930Z,95784.34
2018-05-27T05:52:42.420Z,95788.66
2018-05-27T05:55:20.418Z,95792.09
2018-05-27T05:57:49.506Z,95792.17
2018-05-27T06:00:18.675Z,95791.17
2018-05-27T06:02:48.624Z,95792.44
2018-05-27T06:05:17.681Z,95794.63
2018-05-27T06:07:46.774Z,95794.23
2018-05-27T06:12:51.509Z,95796.27
2018-05-27T06:15:20.565Z,95794.13
2018-05-27T06:17:49.639Z,95790.82
2018-05-27T06:20:20.255Z,95793.27
2018-05-27T06:22:49.309Z,95793.53
2018-05-27T06:27:54.207Z,95792.66
2018-05-27T06:30:23.258Z,95795.89
2018-05-27T06:32:52.301Z,95793.67
2018-05-27T06:35:21.386Z,95792.00
2018-05-27T06:37:50.416Z,95791.38
2018-05-27T06:40:19.621Z,95799.56
2018-05-27T06:42:48.660Z,95801.12
2018-05-27T06:47:53.511Z,95802.03
2018-05-27T06:52:58.261Z,95802.42
2018-05-27T06:55:27.318Z,95805.04
2018-05-27T06:57:56.367Z,95806.69
2018-05-27T07:03:05.993Z,95803.19
2018-05-27T07:05:35.521Z,95799.69
2018-05-27T07:08:04.601Z,95799.59
2018-05-27T07:10:33.663Z,95797.95
2018-05-27T07:13:02.693Z,95801.00
2018-05-27T07:15:31.736Z,95796.11
2018-05-27T07:18:01.751Z,95798.13
2018-05-27T07:20:30.818Z,95798.72
2018-05-27T07:22:59.872Z,95798.73
2018-05-27T07:25:28.911Z,95797.58
2018-05-27T07:27:57.961Z,95795.70
2018-05-27T07:30:27.022Z,95787.38
2018-05-27T07:32:56.059Z,95789.91
2018-05-27T07:35:25.113Z,95784.88
2018-05-27T07:37:54.185Z,95785.09
2018-05-27T07:42:58.998Z,95785.66
2018-05-27T07:45:28.095Z,95784.02
2018-05-27T07:47:57.134Z,95786.17
2018-05-27T07:53:01.957Z,95788.11
2018-05-27T07:55:31.010Z,95791.17
2018-05-27T07:58:00.066Z,95795.02
2018-05-27T08:00:29.305Z,95798.16
2018-05-27T08:02:58.333Z,95797.71
2018-05-27T08:05:27.387Z,95803.47
2018-05-27T08:07:56.425Z,95802.37
2018-05-27T08:10:25.478Z,95808.55
2018-05-27T08:12:54.522Z,95807.17
2018-05-27T08:15:23.571Z,95807.34
2018-05-27T08:17:52.613Z,95808.04
2018-05-27T08:20:21.652Z,95804.27
2018-05-27T08:22:50.729Z,95801.35
2018-05-27T08:25:22.021Z,95801.72
2018-05-27T08:27:51.143Z,95801.39
2018-05-27T08:30:20.196Z,95804.02
2018-05-27T08:32:49.241Z,95807.11
2018-05-27T08:35:18.285Z,95810.86
2018-05-27T08:37:47.337Z,95806.50
2018-05-27T08:40:16.393Z,95807.14
2018-05-27T08:42:45.434Z,95806.14
2018-05-27T08:47:50.314Z,95800.97
2018-05-27T08:50:19.362Z,95801.02
2018-05-27T08:52:48.409Z,95795.47
2018-05-27T08:55:18.038Z,95788.17
2018-05-27T08:57:48.065Z,95786.00
2018-05-27T09:00:17.122Z,95787.03
2018-05-27T09:02:46.170Z,95790.75
2018-05-27T09:05:15.222Z,95787.28
2018-05-27T09:07:44.264Z,95785.30
2018-05-27T09:10:13.326Z,95786.00
2018-05-27T09:12:42.368Z,95782.27
2018-05-27T09:17:48.308Z,95777.80
2018-05-27T09:20:17.351Z,95773.13
2018-05-27T09:22:46.408Z,95770.28
2018-05-27T09:25:15.471Z,95771.80
2018-05-27T09:27:46.165Z,95775.59
2018-05-27T09:30:15.188Z,95772.64
2018-05-27T09:32:44.606Z,95766.36
2018-05-27T09:35:13.734Z,95761.50
2018-05-27T09:37:43.431Z,95769.59
2018-05-27T09:40:12.459Z,95769.28
2018-05-27T09:45:18.712Z,95774.18
2018-05-27T09:47:48.450Z,95775.73
2018-05-27T09:50:19.061Z,95775.23
2018-05-27T09:55:24.747Z,95776.17
2018-05-27T09:57:53.875Z,95769.62
2018-05-27T10:00:23.952Z,95766.78
2018-05-27T10:02:52.985Z,95766.84
2018-05-27T10:05:22.734Z,95766.27
2018-05-27T10:07:51.798Z,95765.63
2018-05-27T10:10:21.945Z,95767.25
2018-05-27T10:15:27.485Z,95764.25
2018-05-27T10:18:00.040Z,95761.94
2018-05-27T10:20:30.871Z,95757.09
2018-05-27T10:23:03.565Z,95760.75
2018-05-27T10:25:34.268Z,95759.64
2018-05-27T10:28:06.439Z,95754.95
2018-05-27T10:30:39.773Z,95751.26
2018-05-27T10:33:12.516Z,95754.73
2018-05-27T10:35:42.366Z,95750.61
2018-05-27T10:38:11.429Z,95751.20
2018-05-27T10:40:40.464Z,95747.87
2018-05-27T10:43:10.312Z,95753.21
2018-05-27T10:45:44.292Z,95749.89
2018-05-27T10:48:14.065Z,95754.63
2018-05-27T10:53:25.774Z,95745.16
2018-05-27T10:55:54.798Z,95740.80
2018-05-27T10:58:24.093Z,95739.89
2018-05-27T11:00:57.823Z,95737.30
2018-05-27T11:03:29.133Z,95740.22
2018-05-27T11:06:01.034Z,95739.69
2018-05-27T11:08:31.768Z,95743.08
2018-05-27T11:11:03.477Z,95738.95
2018-05-27T11:13:35.789Z,95739.55
2018-05-27T11:16:07.986Z,95737.07
2018-05-27T11:18:40.918Z,95732.84
2018-05-27T11:21:13.306Z,95729.48
2018-05-27T11:26:22.428Z,95724.16
2018-05-27T11:28:54.719Z,95722.83
2018-05-27T11:31:26.547Z,95715.79
2018-05-27T11:33:59.376Z,95712.45
2018-05-27T11:36:30.062Z,95716.60
2018-05-27T11:39:03.160Z,95710.03
2018-05-27T11:41:35.345Z,95716.08
2018-05-27T11:44:08.355Z,95708.95
2018-05-27T11:46:41.160Z,95702.47
2018-05-27T11:49:13.916Z,95702.84
2018-05-27T11:51:44.624Z,95698.05
2018-05-27T11:54:16.020Z,95690.67
2018-05-27T11:56:46.905Z,95690.82
2018-05-27T11:59:18.658Z,95686.86
2018-05-27T12:01:53.332Z,95682.03
2018-05-27T12:04:26.421Z,95673.24
2018-05-27T12:06:57.806Z,95666.80
2018-05-27T12:09:28.427Z,95656.90
2018-05-27T12:12:00.048Z,95651.79
2018-05-27T12:14:32.221Z,95649.17
2018-05-27T12:17:03.999Z,95648.60
2018-05-27T12:19:36.410Z,95646.70
2018-05-27T12:22:08.465Z,95643.20
2018-05-27T12:24:40.319Z,95647.48
2018-05-27T12:27:11.886Z,95651.00
2018-05-27T12:29:43.745Z,95648.64
2018-05-27T12:34:51.053Z,95652.16
2018-05-27T12:37:23.991Z,95650.34
2018-05-27T12:39:56.200Z,95653.05
2018-05-27T12:42:28.661Z,95651.39
2018-05-27T12:45:00.812Z,95654.27
2018-05-27T12:50:10.180Z,95660.36
2018-05-27T12:52:41.751Z,95656.87
2018-05-27T12:55:14.278Z,95662.31
2018-05-27T12:57:46.789Z,95666.52
2018-05-27T13:00:19.684Z,95662.48
2018-05-27T13:02:53.950Z,95661.59
2018-05-27T13:05:25.147Z,95659.72
2018-05-27T13:07:57.570Z,95662.34
2018-05-27T13:10:30.128Z,95661.28
2018-05-27T13:15:42.059Z,95650.88
2018-05-27T13:18:14.783Z,95650.41
2018-05-27T13:25:27.646Z,95636.48
2018-05-27T13:27:59.797Z,95633.23
2018-05-27T13:30:31.640Z,95631.33
2018-05-27T13:33:03.615Z,95629.69
2018-05-27T13:40:47.466Z,95631.93
2018-05-27T13:43:19.881Z,95641.41
2018-05-27T13:45:51.807Z,95640.30
2018-05-27T13:51:01.935Z,95639.45
2018-05-27T13:53:34.754Z,95636.47
2018-05-27T13:56:07.516Z,95637.78
2018-05-27T13:58:39.090Z,95641.16
2018-05-27T14:01:12.382Z,95641.35
2018-05-27T14:03:44.378Z,95644.98
2018-05-27T14:06:17.337Z,95646.06
2018-05-27T14:08:49.334Z,95638.48
2018-05-27T14:11:21.912Z,95643.72
2018-05-27T14:13:54.080Z,95644.20
2018-05-27T14:16:28.627Z,95638.91
2018-05-27T14:19:01.743Z,95637.69
2018-05-27T14:21:33.599Z,95635.84
2018-05-27T14:24:06.079Z,95638.31
2018-05-27T14:26:38.578Z,95636.00
2018-05-27T14:29:11.065Z,95636.92
2018-05-27T14:31:42.971Z,95635.34
2018-05-27T14:34:19.040Z,95636.00
2018-05-27T14:36:51.004Z,95641.78
2018-05-27T14:39:24.572Z,95642.33
2018-05-27T14:42:02.947Z,95647.91
2018-05-27T14:44:41.129Z,95647.27
2018-05-27T14:49:52.534Z,95642.28
2018-05-27T14:52:24.868Z,95644.46
2018-05-27T14:57:39.775Z,95647.15
2018-05-27T15:00:14.902Z,95651.34
2018-05-27T15:02:48.677Z,95646.95
2018-05-27T15:05:22.374Z,95644.72
2018-05-27T15:07:55.759Z,95640.22
2018-05-27T15:10:29.795Z,95632.91
2018-05-27T15:13:02.938Z,95626.60
2018-05-27T15:15:36.428Z,95623.77
2018-05-27T15:18:08.516Z,95619.12
2018-05-27T15:20:40.554Z,95609.93
2018-05-27T15:23:13.685Z,95603.09
2018-05-27T15:25:46.378Z,95601.99
2018-05-27T15:28:19.420Z,95594.30
2018-05-27T15:30:51.988Z,95590.30
2018-05-27T15:33:25.163Z,95586.48
2018-05-27T15:35:58.054Z,95577.89
2018-05-27T15:38:32.304Z,95570.41
2018-05-27T15:41:08.391Z,95564.05
2018-05-27T15:43:40.960Z,95562.17
2018-05-27T15:46:12.972Z,95554.47
2018-05-27T15:48:46.477Z,95556.95
2018-05-27T15:53:55.484Z,95563.08
2018-05-27T15:56:27.511Z,95561.42
2018-05-27T15:59:00.534Z,95565.94
2018-05-27T16:01:33.796Z,95568.36
2018-05-27T16:04:06.936Z,95571.70
2018-05-27T16:09:19.597Z,95576.75
2018-05-27T16:14:29.280Z,95577.29
2018-05-27T16:17:03.198Z,95578.31
2018-05-27T16:19:37.872Z,95575.09
2018-05-27T16:22:11.378Z,95570.86
2018-05-27T16:24:44.838Z,95568.65
2018-05-27T16:27:18.404Z,95565.81
2018-05-27T16:29:50.367Z,95569.30
2018-05-27T16:32:23.368Z,95570.34
2018-05-27T16:34:56.243Z,95568.32
2018-05-27T16:37:32.001Z,95567.26
2018-05-27T16:40:04.848Z,95568.14
2018-05-27T16:42:38.367Z,95564.34
2018-05-27T16:47:52.951Z,95565.27
2018-05-27T16:50:29.460Z,95562.96
2018-05-27T16:53:02.710Z,95567.74
2018-05-27T16:55:36.135Z,95569.53
2018-05-27T16:58:09.208Z,95569.84
2018-05-27T17:03:18.618Z,95570.37
2018-05-27T17:05:51.693Z,95567.89
2018-05-27T17:08:24.579Z,95567.07
2018-05-27T17:11:00.760Z,95566.50
2018-05-27T17:13:35.053Z,95564.64
2018-05-27T17:16:07.927Z,95560.11
2018-05-27T17:18:40.673Z,95558.48
2018-05-27T17:21:14.131Z,95559.47
2018-05-27T17:23:47.341Z,95551.97
2018-05-27T17:28:57.343Z,95542.30
2018-05-27T17:31:30.381Z,95537.68
2018-05-27T17:34:00.045Z,95533.34
2018-05-27T17:36:29.091Z,95529.55
2018-05-27T17:38:58.149Z,95528.06
2018-05-27T17:41:27.629Z,95524.66
2018-05-27T17:43:56.733Z,95526.82
2018-05-27T17:46:26.267Z,95529.16
2018-05-27T17:48:55.300Z,95534.78
2018-05-27T17:51:25.261Z,95531.97
2018-05-27T17:53:54.310Z,95526.47
2018-05-27T17:56:24.602Z,95524.20
2018-05-27T17:58:53.646Z,95529.14
2018-05-27T18:01:22.898Z,95531.77
2018-05-27T18:03:53.316Z,95540.41
2018-05-27T18:08:58.945Z,95548.61
2018-05-27T18:11:28.003Z,95548.94
2018-05-27T18:13:57.078Z,95553.48
2018-05-27T18:16:26.778Z,95558.12
2018-05-27T18:18:55.896Z,95565.63
2018-05-27T18:21:24.974Z,95567.33
2018-05-27T18:23:54.301Z,95572.33
2018-05-27T18:26:23.326Z,95573.44
2018-05-27T18:28:52.366Z,95579.48
2018-05-27T18:31:21.874Z,95583.48
2018-05-27T18:33:50.933Z,95583.98
2018-05-27T18:36:19.978Z,95583.89
2018-05-27T18:38:49.342Z,95587.17
2018-05-27T18:41:18.333Z,95586.84
2018-05-27T18:43:47.554Z,95591.61
2018-05-27T18:46:17.628Z,95590.52
2018-05-27T18:48:48.149Z,95592.14
2018-05-27T18:51:18.550Z,95592.50
2018-05-27T18:53:48.093Z,95600.05
2018-05-27T18:56:18.798Z,95602.29
2018-05-27T18:58:48.338Z,95604.77
2018-05-27T19:01:19.957Z,95603.87
2018-05-27T19:03:49.308Z,95603.64
2018-05-27T19:06:19.873Z,95603.06
2018-05-27T19:08:49.738Z,95603.70
2018-05-27T19:11:21.611Z,95602.30
2018-05-27T19:13:51.721Z,95602.57
2018-05-27T19:16:22.319Z,95597.78
2018-05-27T19:18:51.929Z,95595.48
2018-05-27T19:21:23.989Z,95597.03
2018-05-27T19:23:53.525Z,95596.52
2018-05-27T19:26:23.277Z,95595.50
2018-05-27T19:28:52.398Z,95595.49
2018-05-27T19:31:22.716Z,95599.78
2018-05-27T19:33:54.568Z,95603.61
2018-05-27T19:36:23.624Z,95605.08
2018-05-27T19:38:53.671Z,95601.33
2018-05-27T19:41:23.722Z,95596.95
2018-05-27T19:43:52.951Z,95596.45
2018-05-27T19:46:22.044Z,95592.84
2018-05-27T19:48:51.097Z,95594.22
2018-05-27T19:51:21.372Z,95593.68
2018-05-27T19:53:50.998Z,95594.42
2018-05-27T19:58:56.631Z,95595.91
2018-05-27T20:01:26.210Z,95592.64
2018-05-27T20:03:55.334Z,95588.37
2018-05-27T20:06:24.703Z,95590.63
2018-05-27T20:08:54.122Z,95588.36
2018-05-27T20:11:23.787Z,95593.42
2018-05-27T20:13:53.309Z,95597.91
2018-05-27T20:18:58.341Z,95596.52
2018-05-27T20:21:27.425Z,95594.29
2018-05-27T20:23:56.481Z,95596.46
2018-05-27T20:26:25.530Z,95597.09
2018-05-27T20:28:54.857Z,95600.56
2018-05-27T20:31:24.113Z,95602.97
2018-05-27T20:33:53.629Z,95597.08
2018-05-27T20:36:22.670Z,95598.03
2018-05-27T20:39:04.231Z,95596.80
2018-05-27T20:44:10.888Z,95594.69
2018-05-27T20:46:40.812Z,95593.86
2018-05-27T20:51:47.262Z,95587.75
2018-05-27T20:54:18.017Z,95586.39
2018-05-27T20:56:48.526Z,95585.44
2018-05-27T20:59:18.646Z,95586.12
2018-05-27T21:01:50.479Z,95589.17
2018-05-27T21:04:20.825Z,95586.82
2018-05-27T21:06:51.373Z,95590.76
2018-05-27T21:09:21.046Z,95584.25
2018-05-27T21:11:51.148Z,95589.36
2018-05-27T21:16:58.033Z,95608.03
2018-05-27T21:19:28.588Z,95614.16
2018-05-27T21:22:00.705Z,95610.74
2018-05-27T21:24:32.661Z,95607.08
2018-05-27T21:27:03.879Z,95608.69
2018-05-27T21:29:34.980Z,95605.58
2018-05-27T21:34:42.281Z,95609.88
2018-05-27T21:37:12.130Z,95612.05
2018-05-27T21:39:42.442Z,95610.45
2018-05-27T21:44:49.328Z,95601.44
2018-05-27T21:49:55.669Z,95597.08
2018-05-27T21:52:25.482Z,95595.05
2018-05-27T21:54:54.780Z,95591.13
2018-05-27T21:57:25.678Z,95593.33
2018-05-27T21:59:56.567Z,95590.22
2018-05-27T22:02:27.084Z,95594.14
2018-05-27T22:04:57.490Z,95598.77
2018-05-27T22:07:27.796Z,95604.38
2018-05-27T22:10:00.103Z,95603.98
2018-05-27T22:15:06.430Z,95606.72
2018-05-27T22:17:35.467Z,95608.52
2018-05-27T22:22:40.312Z,95616.73
2018-05-27T22:25:09.376Z,95610.03
2018-05-27T22:32:49.917Z,95599.61
2018-05-27T22:37:54.763Z,95599.57
2018-05-27T22:40:23.823Z,95606.45
2018-05-27T22:45:28.607Z,95604.52
2018-05-27T22:47:57.666Z,95598.94
2018-05-27T22:50:26.729Z,95596.35
2018-05-27T22:52:55.847Z,95601.51
2018-05-27T22:55:24.899Z,95598.32
2018-05-27T22:57:53.950Z,95592.94
2018-05-27T23:00:23.023Z,95596.80
2018-05-27T23:02:52.072Z,95592.77
2018-05-27T23:07:57.842Z,95586.63
2018-05-27T23:13:02.613Z,95599.38
2018-05-27T23:15:31.666Z,95589.22
2018-05-27T23:18:00.719Z,95586.06
2018-05-27T23:20:29.765Z,95581.58
2018-05-27T23:22:58.822Z,95582.94
2018-05-27T23:25:27.937Z,95587.02
2018-05-27T23:30:32.758Z,95575.01
2018-05-27T23:35:37.517Z,95572.52
2018-05-27T23:38:06.561Z,95564.34
2018-05-27T23:40:35.630Z,95562.53
2018-05-27T23:45:40.463Z,95564.34
2018-05-27T23:50:45.205Z,95559.27
2018-05-27T23:53:15.022Z,95562.90
2018-05-27T23:55:44.053Z,95564.16
2018-05-27T23:58:13.109Z,95558.89
